Airfield :
LOGIN :

Register | Disclaimer

   EN    FR    IT 

 










Legend :    VFR   Marginal VFR   IFR   Intensive IFR   Very Intensive IFR
Visi :
Ceiling :
>= 8 km
>= 3000ft
5 to 8 km
1000 to 3000 ft
1500m to 5 km
500 to 1000 ft
800 to 1500m
200 to 500 ft
< 800m
< 200 ft
Symbols :   Thunderstorms  Fog  Heavy snow  Heavy precipitations  Wind > 20 kt
SIGMETs :     Misc.  Thunderstorms  Icing  Turbulence  Mountain Waves  Volcanic Ashes







- Airport Elevation : 776 ft
- IATA code : RMS


ETAR - Ramstein Air Base

CURRENT METAR :
  • 192156Z 04016G22KT 9999 OVC029 03/M01 A2977 RMK AO2A PK WND 06027/01 CIG 028 RWY26 SLP094 T00251009 $

EXPIRED METARs :
  • 192056Z 05015KT 9999 OVC028 03/M01 A2978 RMK AO2A SLP098 58005 $
  • 192016Z AUTO 04012G21KT 9999 BKN030 02/02 A2979 RMK AO2 SLP102 $
  • 191956Z AUTO 04013KT 9999 OVC029 02/02 A2979 RMK AO2 SLP102 T00220021 $
  • 191926Z 04014KT 9999 OVC029 02/M01 A2979 RMK AO2A SLP102 $

TAF TAF ETAR
Valid from the 19 at 18:00 until the 21 at 00:00 UTC


191813Z 1918/2100 07010G15KT 8000 -RASN BKN030 620307 QNH2980INS
TEMPO 1918/1922 07015G25KT
BECMG 1921/1922 07015G25KT 9999 NSW BKN020 620208 QNH2968INS
BECMG 2007/2008 07010G15KT 9999 SCT015 BKN020 620208 QNH2967INS
BECMG 2011/2012 08009KT 8000 -RA BKN020 620208 QNH2970INS
BECMG 2014/2015 09009KT 9999 NSW SCT025 BKN100 QNH2973INS TX05/2012Z TNM03/2005Z
No reported NOTAMs for that airfield.



MET'MAP, your aeronautical weather chart ! - Copyright ORBIFLY December 2007 - Disclaimer

ORBIFLY MET'MAP TEAM :

Programming & Development : Alexandra Zaïnal
Concept & Development : Baudouin d'Aumeries
Co-Development & Prog : Marc-Olivier Méhu
Technical & hardware support : Manuel Goepfert

Contact : metmap@orbifly.com




SOURCES & CREDITS :

   NOAA